sensor_id;sensor_type;location;lat;lon;timestamp;P1;durP1;ratioP1;P2;durP2;ratioP2
19940;SDS011;10132;50.864;5.176;2023-05-10T00:00:08;12.43;;;11.03;;
19940;SDS011;10132;50.864;5.176;2023-05-10T00:02:12;12.30;;;11.10;;
19940;SDS011;10132;50.864;5.176;2023-05-10T00:04:14;15.20;;;10.80;;
19940;SDS011;10132;50.864;5.176;2023-05-10T00:06:16;11.97;;;10.80;;
19940;SDS011;10132;50.864;5.176;2023-05-10T00:08:18;13.10;;;11.07;;
19940;SDS011;10132;50.864;5.176;2023-05-10T00:10:21;12.43;;;11.13;;
19940;SDS011;10132;50.864;5.176;2023-05-10T00:12:24;12.47;;;11.27;;
19940;SDS011;10132;50.864;5.176;2023-05-10T00:14:27;11.90;;;10.60;;
19940;SDS011;10132;50.864;5.176;2023-05-10T00:16:29;11.93;;;10.73;;
19940;SDS011;10132;50.864;5.176;2023-05-10T00:18:32;12.30;;;11.10;;
19940;SDS011;10132;50.864;5.176;2023-05-10T00:20:34;14.87;;;11.20;;
19940;SDS011;10132;50.864;5.176;2023-05-10T00:22:36;13.70;;;11.10;;
19940;SDS011;10132;50.864;5.176;2023-05-10T00:24:39;12.40;;;11.20;;
19940;SDS011;10132;50.864;5.176;2023-05-10T00:26:41;12.90;;;11.60;;
19940;SDS011;10132;50.864;5.176;2023-05-10T00:28:46;13.60;;;11.30;;
19940;SDS011;10132;50.864;5.176;2023-05-10T00:30:49;12.17;;;10.87;;
19940;SDS011;10132;50.864;5.176;2023-05-10T00:32:51;12.97;;;10.53;;
19940;SDS011;10132;50.864;5.176;2023-05-10T00:34:54;15.57;;;11.87;;
19940;SDS011;10132;50.864;5.176;2023-05-10T00:36:57;15.30;;;10.83;;
19940;SDS011;10132;50.864;5.176;2023-05-10T00:38:59;12.67;;;10.83;;
19940;SDS011;10132;50.864;5.176;2023-05-10T00:41:03;13.03;;;11.00;;
19940;SDS011;10132;50.864;5.176;2023-05-10T00:43:05;14.87;;;11.47;;
19940;SDS011;10132;50.864;5.176;2023-05-10T00:45:09;14.87;;;10.83;;
19940;SDS011;10132;50.864;5.176;2023-05-10T00:47:12;13.53;;;10.80;;
19940;SDS011;10132;50.864;5.176;2023-05-10T00:49:14;16.40;;;10.50;;
19940;SDS011;10132;50.864;5.176;2023-05-10T00:51:17;15.33;;;11.17;;
19940;SDS011;10132;50.864;5.176;2023-05-10T00:53:19;14.53;;;11.07;;
19940;SDS011;10132;50.864;5.176;2023-05-10T00:55:22;13.03;;;10.93;;
19940;SDS011;10132;50.864;5.176;2023-05-10T00:57:24;14.40;;;10.60;;
19940;SDS011;10132;50.864;5.176;2023-05-10T00:59:26;14.80;;;11.20;;
19940;SDS011;10132;50.864;5.176;2023-05-10T01:01:32;15.77;;;10.50;;
19940;SDS011;10132;50.864;5.176;2023-05-10T01:03:34;16.47;;;11.47;;
19940;SDS011;10132;50.864;5.176;2023-05-10T01:05:37;12.90;;;10.97;;
19940;SDS011;10132;50.864;5.176;2023-05-10T01:07:42;15.83;;;11.10;;
19940;SDS011;10132;50.864;5.176;2023-05-10T01:09:44;15.83;;;11.33;;
19940;SDS011;10132;50.864;5.176;2023-05-10T01:11:47;15.47;;;11.40;;
19940;SDS011;10132;50.864;5.176;2023-05-10T01:13:50;18.07;;;11.50;;
19940;SDS011;10132;50.864;5.176;2023-05-10T01:15:56;17.47;;;11.73;;
19940;SDS011;10132;50.864;5.176;2023-05-10T01:18:01;17.03;;;12.03;;
19940;SDS011;10132;50.864;5.176;2023-05-10T01:20:05;16.93;;;12.23;;
19940;SDS011;10132;50.864;5.176;2023-05-10T01:22:12;18.30;;;12.00;;
19940;SDS011;10132;50.864;5.176;2023-05-10T01:24:40;14.77;;;10.93;;
19940;SDS011;10132;50.864;5.176;2023-05-10T01:32:08;18.93;;;11.40;;
19940;SDS011;10132;50.864;5.176;2023-05-10T01:34:19;18.37;;;11.73;;
19940;SDS011;10132;50.864;5.176;2023-05-10T01:36:26;15.67;;;11.60;;
19940;SDS011;10132;50.864;5.176;2023-05-10T01:38:36;16.90;;;12.70;;
19940;SDS011;10132;50.864;5.176;2023-05-10T01:40:46;17.17;;;12.03;;
19940;SDS011;10132;50.864;5.176;2023-05-10T01:42:57;18.87;;;11.30;;
19940;SDS011;10132;50.864;5.176;2023-05-10T01:45:06;17.10;;;11.87;;
19940;SDS011;10132;50.864;5.176;2023-05-10T01:47:17;18.93;;;11.97;;
19940;SDS011;10132;50.864;5.176;2023-05-10T01:49:23;14.97;;;11.20;;
19940;SDS011;10132;50.864;5.176;2023-05-10T01:51:29;17.43;;;12.13;;
19940;SDS011;10132;50.864;5.176;2023-05-10T01:53:39;16.20;;;11.70;;
19940;SDS011;10132;50.864;5.176;2023-05-10T01:55:44;15.83;;;11.77;;
19940;SDS011;10132;50.864;5.176;2023-05-10T01:57:50;16.53;;;11.90;;
19940;SDS011;10132;50.864;5.176;2023-05-10T01:59:58;13.80;;;11.53;;
19940;SDS011;10132;50.864;5.176;2023-05-10T02:02:02;17.63;;;11.93;;
19940;SDS011;10132;50.864;5.176;2023-05-10T02:04:08;19.73;;;12.00;;
19940;SDS011;10132;50.864;5.176;2023-05-10T02:06:11;16.70;;;11.60;;
19940;SDS011;10132;50.864;5.176;2023-05-10T02:08:15;17.03;;;12.20;;
19940;SDS011;10132;50.864;5.176;2023-05-10T02:10:20;17.80;;;11.90;;
19940;SDS011;10132;50.864;5.176;2023-05-10T02:12:24;16.40;;;11.23;;
19940;SDS011;10132;50.864;5.176;2023-05-10T02:14:28;18.60;;;12.60;;
19940;SDS011;10132;50.864;5.176;2023-05-10T02:16:33;19.63;;;11.63;;
19940;SDS011;10132;50.864;5.176;2023-05-10T02:18:37;16.40;;;11.87;;
19940;SDS011;10132;50.864;5.176;2023-05-10T02:20:46;21.07;;;13.07;;
19940;SDS011;10132;50.864;5.176;2023-05-10T02:22:49;24.70;;;13.20;;
19940;SDS011;10132;50.864;5.176;2023-05-10T02:24:53;21.20;;;12.63;;
19940;SDS011;10132;50.864;5.176;2023-05-10T02:26:56;16.53;;;12.50;;
19940;SDS011;10132;50.864;5.176;2023-05-10T02:29:01;20.17;;;12.50;;
19940;SDS011;10132;50.864;5.176;2023-05-10T02:31:05;18.70;;;13.07;;
19940;SDS011;10132;50.864;5.176;2023-05-10T02:33:09;23.13;;;13.80;;
19940;SDS011;10132;50.864;5.176;2023-05-10T02:35:13;20.67;;;13.47;;
19940;SDS011;10132;50.864;5.176;2023-05-10T02:37:18;22.87;;;13.87;;
19940;SDS011;10132;50.864;5.176;2023-05-10T02:39:22;20.00;;;13.63;;
19940;SDS011;10132;50.864;5.176;2023-05-10T02:41:26;21.77;;;14.07;;
19940;SDS011;10132;50.864;5.176;2023-05-10T02:43:30;18.13;;;13.63;;
19940;SDS011;10132;50.864;5.176;2023-05-10T02:45:34;23.03;;;14.87;;
19940;SDS011;10132;50.864;5.176;2023-05-10T02:47:38;21.40;;;14.63;;
19940;SDS011;10132;50.864;5.176;2023-05-10T02:49:42;21.67;;;14.67;;
19940;SDS011;10132;50.864;5.176;2023-05-10T02:51:47;24.80;;;15.67;;
19940;SDS011;10132;50.864;5.176;2023-05-10T02:53:55;21.67;;;14.73;;
19940;SDS011;10132;50.864;5.176;2023-05-10T02:55:59;22.37;;;15.33;;
19940;SDS011;10132;50.864;5.176;2023-05-10T02:58:07;22.07;;;14.73;;
19940;SDS011;10132;50.864;5.176;2023-05-10T03:00:09;23.17;;;15.37;;
19940;SDS011;10132;50.864;5.176;2023-05-10T03:02:12;21.60;;;14.83;;
19940;SDS011;10132;50.864;5.176;2023-05-10T03:04:14;19.33;;;14.63;;
19940;SDS011;10132;50.864;5.176;2023-05-10T03:06:17;21.07;;;14.97;;
19940;SDS011;10132;50.864;5.176;2023-05-10T03:08:19;21.07;;;14.63;;
19940;SDS011;10132;50.864;5.176;2023-05-10T03:10:24;20.17;;;14.87;;
19940;SDS011;10132;50.864;5.176;2023-05-10T03:12:33;23.30;;;14.70;;
19940;SDS011;10132;50.864;5.176;2023-05-10T03:14:49;25.23;;;15.53;;
19940;SDS011;10132;50.864;5.176;2023-05-10T03:17:04;24.80;;;14.97;;
19940;SDS011;10132;50.864;5.176;2023-05-10T03:19:12;19.50;;;14.93;;
19940;SDS011;10132;50.864;5.176;2023-05-10T03:21:18;23.27;;;14.33;;
19940;SDS011;10132;50.864;5.176;2023-05-10T03:23:30;21.93;;;15.40;;
19940;SDS011;10132;50.864;5.176;2023-05-10T03:25:38;22.43;;;15.57;;
19940;SDS011;10132;50.864;5.176;2023-05-10T03:27:43;22.07;;;15.00;;
19940;SDS011;10132;50.864;5.176;2023-05-10T03:29:46;23.47;;;15.83;;
19940;SDS011;10132;50.864;5.176;2023-05-10T03:31:49;21.97;;;15.40;;
19940;SDS011;10132;50.864;5.176;2023-05-10T03:33:51;23.70;;;16.47;;
19940;SDS011;10132;50.864;5.176;2023-05-10T03:35:54;24.93;;;15.77;;
19940;SDS011;10132;50.864;5.176;2023-05-10T03:37:56;20.40;;;15.67;;
19940;SDS011;10132;50.864;5.176;2023-05-10T03:39:58;27.43;;;15.60;;
19940;SDS011;10132;50.864;5.176;2023-05-10T03:42:02;22.13;;;15.77;;
19940;SDS011;10132;50.864;5.176;2023-05-10T03:44:04;24.67;;;16.37;;
19940;SDS011;10132;50.864;5.176;2023-05-10T03:46:06;21.17;;;15.83;;
19940;SDS011;10132;50.864;5.176;2023-05-10T03:48:10;25.00;;;16.37;;
19940;SDS011;10132;50.864;5.176;2023-05-10T03:50:13;22.77;;;16.20;;
19940;SDS011;10132;50.864;5.176;2023-05-10T03:52:15;27.07;;;17.03;;
19940;SDS011;10132;50.864;5.176;2023-05-10T03:54:18;24.77;;;16.80;;
19940;SDS011;10132;50.864;5.176;2023-05-10T03:56:20;26.73;;;17.80;;
19940;SDS011;10132;50.864;5.176;2023-05-10T03:58:23;25.43;;;16.60;;
19940;SDS011;10132;50.864;5.176;2023-05-10T04:00:26;24.63;;;17.20;;
19940;SDS011;10132;50.864;5.176;2023-05-10T04:02:30;23.20;;;15.87;;
19940;SDS011;10132;50.864;5.176;2023-05-10T04:04:32;21.27;;;15.83;;
19940;SDS011;10132;50.864;5.176;2023-05-10T04:06:34;25.30;;;17.10;;
19940;SDS011;10132;50.864;5.176;2023-05-10T04:08:39;25.30;;;15.83;;
19940;SDS011;10132;50.864;5.176;2023-05-10T04:10:42;26.33;;;17.23;;
19940;SDS011;10132;50.864;5.176;2023-05-10T04:12:44;25.80;;;17.50;;
19940;SDS011;10132;50.864;5.176;2023-05-10T04:14:48;24.73;;;17.37;;
19940;SDS011;10132;50.864;5.176;2023-05-10T04:16:51;25.63;;;17.97;;
19940;SDS011;10132;50.864;5.176;2023-05-10T04:18:53;26.03;;;17.50;;
19940;SDS011;10132;50.864;5.176;2023-05-10T04:20:56;25.63;;;16.97;;
19940;SDS011;10132;50.864;5.176;2023-05-10T04:22:58;25.43;;;17.90;;
19940;SDS011;10132;50.864;5.176;2023-05-10T04:25:01;22.50;;;16.47;;
19940;SDS011;10132;50.864;5.176;2023-05-10T04:27:03;23.07;;;16.47;;
19940;SDS011;10132;50.864;5.176;2023-05-10T04:29:06;24.10;;;16.20;;
19940;SDS011;10132;50.864;5.176;2023-05-10T04:31:09;23.87;;;16.47;;
19940;SDS011;10132;50.864;5.176;2023-05-10T04:33:12;20.00;;;14.63;;
19940;SDS011;10132;50.864;5.176;2023-05-10T04:35:15;18.83;;;15.37;;
19940;SDS011;10132;50.864;5.176;2023-05-10T04:37:17;25.80;;;16.47;;
19940;SDS011;10132;50.864;5.176;2023-05-10T04:39:19;19.83;;;15.10;;
19940;SDS011;10132;50.864;5.176;2023-05-10T04:41:22;22.27;;;14.27;;
19940;SDS011;10132;50.864;5.176;2023-05-10T04:43:25;20.87;;;14.60;;
19940;SDS011;10132;50.864;5.176;2023-05-10T04:45:29;15.87;;;10.37;;
19940;SDS011;10132;50.864;5.176;2023-05-10T04:47:34;13.10;;;9.23;;
19940;SDS011;10132;50.864;5.176;2023-05-10T04:49:37;12.33;;;8.20;;
19940;SDS011;10132;50.864;5.176;2023-05-10T04:51:39;11.83;;;7.97;;
19940;SDS011;10132;50.864;5.176;2023-05-10T04:53:42;11.07;;;7.53;;
19940;SDS011;10132;50.864;5.176;2023-05-10T04:55:44;10.57;;;7.63;;
19940;SDS011;10132;50.864;5.176;2023-05-10T04:57:46;12.30;;;8.27;;
19940;SDS011;10132;50.864;5.176;2023-05-10T04:59:48;12.20;;;8.60;;
19940;SDS011;10132;50.864;5.176;2023-05-10T05:01:51;12.10;;;8.83;;
19940;SDS011;10132;50.864;5.176;2023-05-10T05:03:55;10.70;;;8.40;;
19940;SDS011;10132;50.864;5.176;2023-05-10T05:05:57;9.60;;;7.50;;
19940;SDS011;10132;50.864;5.176;2023-05-10T05:08:01;10.10;;;8.30;;
19940;SDS011;10132;50.864;5.176;2023-05-10T05:10:04;11.50;;;8.70;;
19940;SDS011;10132;50.864;5.176;2023-05-10T05:12:09;10.77;;;7.80;;
19940;SDS011;10132;50.864;5.176;2023-05-10T05:14:14;11.50;;;9.10;;
19940;SDS011;10132;50.864;5.176;2023-05-10T05:16:16;10.67;;;7.73;;
19940;SDS011;10132;50.864;5.176;2023-05-10T05:18:19;12.27;;;9.20;;
19940;SDS011;10132;50.864;5.176;2023-05-10T05:20:22;13.97;;;9.40;;
19940;SDS011;10132;50.864;5.176;2023-05-10T05:22:25;13.47;;;10.00;;
19940;SDS011;10132;50.864;5.176;2023-05-10T05:24:28;11.33;;;8.93;;
19940;SDS011;10132;50.864;5.176;2023-05-10T05:26:36;11.73;;;9.53;;
19940;SDS011;10132;50.864;5.176;2023-05-10T05:28:38;12.13;;;9.63;;
19940;SDS011;10132;50.864;5.176;2023-05-10T05:30:40;13.00;;;9.80;;
19940;SDS011;10132;50.864;5.176;2023-05-10T05:32:43;14.40;;;10.13;;
19940;SDS011;10132;50.864;5.176;2023-05-10T05:34:47;12.50;;;10.47;;
19940;SDS011;10132;50.864;5.176;2023-05-10T05:36:50;13.90;;;11.20;;
19940;SDS011;10132;50.864;5.176;2023-05-10T05:38:53;13.47;;;11.27;;
19940;SDS011;10132;50.864;5.176;2023-05-10T05:40:56;15.37;;;12.17;;
19940;SDS011;10132;50.864;5.176;2023-05-10T05:42:58;16.13;;;12.10;;
19940;SDS011;10132;50.864;5.176;2023-05-10T05:45:00;15.53;;;12.90;;
19940;SDS011;10132;50.864;5.176;2023-05-10T05:47:04;17.77;;;13.60;;
19940;SDS011;10132;50.864;5.176;2023-05-10T05:49:06;18.17;;;13.73;;
19940;SDS011;10132;50.864;5.176;2023-05-10T05:51:09;23.97;;;15.33;;
19940;SDS011;10132;50.864;5.176;2023-05-10T05:53:16;24.23;;;17.00;;
19940;SDS011;10132;50.864;5.176;2023-05-10T05:55:19;21.97;;;16.30;;
19940;SDS011;10132;50.864;5.176;2023-05-10T05:57:25;24.13;;;17.20;;
19940;SDS011;10132;50.864;5.176;2023-05-10T05:59:37;27.47;;;18.00;;
19940;SDS011;10132;50.864;5.176;2023-05-10T06:01:44;30.13;;;20.83;;
19940;SDS011;10132;50.864;5.176;2023-05-10T06:03:47;34.90;;;20.77;;
19940;SDS011;10132;50.864;5.176;2023-05-10T06:05:49;34.53;;;20.93;;
19940;SDS011;10132;50.864;5.176;2023-05-10T06:07:52;32.97;;;20.93;;
19940;SDS011;10132;50.864;5.176;2023-05-10T06:09:56;30.87;;;21.33;;
19940;SDS011;10132;50.864;5.176;2023-05-10T06:11:58;30.53;;;20.10;;
19940;SDS011;10132;50.864;5.176;2023-05-10T06:14:01;34.13;;;21.13;;
19940;SDS011;10132;50.864;5.176;2023-05-10T06:16:04;35.80;;;22.43;;
19940;SDS011;10132;50.864;5.176;2023-05-10T06:18:09;35.00;;;22.03;;
19940;SDS011;10132;50.864;5.176;2023-05-10T06:20:12;37.50;;;22.93;;
19940;SDS011;10132;50.864;5.176;2023-05-10T06:22:15;39.13;;;24.13;;
19940;SDS011;10132;50.864;5.176;2023-05-10T06:24:17;42.73;;;25.17;;
19940;SDS011;10132;50.864;5.176;2023-05-10T06:26:22;37.13;;;24.50;;
19940;SDS011;10132;50.864;5.176;2023-05-10T06:28:25;37.47;;;25.13;;
19940;SDS011;10132;50.864;5.176;2023-05-10T06:30:27;38.33;;;23.97;;
19940;SDS011;10132;50.864;5.176;2023-05-10T06:32:30;37.03;;;24.13;;
19940;SDS011;10132;50.864;5.176;2023-05-10T06:34:32;33.73;;;23.10;;
19940;SDS011;10132;50.864;5.176;2023-05-10T06:36:42;35.00;;;24.13;;
19940;SDS011;10132;50.864;5.176;2023-05-10T06:38:44;37.60;;;23.80;;
19940;SDS011;10132;50.864;5.176;2023-05-10T06:40:47;33.10;;;24.20;;
19940;SDS011;10132;50.864;5.176;2023-05-10T06:42:53;31.57;;;22.40;;
19940;SDS011;10132;50.864;5.176;2023-05-10T06:44:57;34.13;;;23.33;;
19940;SDS011;10132;50.864;5.176;2023-05-10T06:47:00;36.43;;;23.80;;
19940;SDS011;10132;50.864;5.176;2023-05-10T06:49:04;34.47;;;23.37;;
19940;SDS011;10132;50.864;5.176;2023-05-10T06:51:07;37.97;;;24.57;;
19940;SDS011;10132;50.864;5.176;2023-05-10T06:53:11;36.80;;;24.63;;
19940;SDS011;10132;50.864;5.176;2023-05-10T06:55:14;35.30;;;23.87;;
19940;SDS011;10132;50.864;5.176;2023-05-10T06:57:16;32.87;;;23.97;;
19940;SDS011;10132;50.864;5.176;2023-05-10T06:59:20;34.17;;;22.63;;
19940;SDS011;10132;50.864;5.176;2023-05-10T07:01:26;31.97;;;22.70;;
19940;SDS011;10132;50.864;5.176;2023-05-10T07:03:29;33.93;;;22.60;;
19940;SDS011;10132;50.864;5.176;2023-05-10T07:05:31;37.70;;;24.20;;
19940;SDS011;10132;50.864;5.176;2023-05-10T07:07:33;33.07;;;23.17;;
19940;SDS011;10132;50.864;5.176;2023-05-10T07:09:35;31.20;;;21.93;;
19940;SDS011;10132;50.864;5.176;2023-05-10T07:11:43;34.87;;;22.43;;
19940;SDS011;10132;50.864;5.176;2023-05-10T07:13:45;32.60;;;22.63;;
19940;SDS011;10132;50.864;5.176;2023-05-10T07:15:50;31.60;;;21.33;;
19940;SDS011;10132;50.864;5.176;2023-05-10T07:18:02;33.27;;;22.53;;
19940;SDS011;10132;50.864;5.176;2023-05-10T07:20:08;32.93;;;21.90;;
19940;SDS011;10132;50.864;5.176;2023-05-10T07:22:12;24.17;;;18.33;;
19940;SDS011;10132;50.864;5.176;2023-05-10T07:24:15;20.77;;;15.37;;
19940;SDS011;10132;50.864;5.176;2023-05-10T07:26:17;14.70;;;11.00;;
19940;SDS011;10132;50.864;5.176;2023-05-10T07:28:24;11.63;;;7.13;;
19940;SDS011;10132;50.864;5.176;2023-05-10T07:30:28;8.73;;;6.73;;
19940;SDS011;10132;50.864;5.176;2023-05-10T07:32:32;7.43;;;5.70;;
19940;SDS011;10132;50.864;5.176;2023-05-10T07:34:41;6.93;;;5.63;;
19940;SDS011;10132;50.864;5.176;2023-05-10T07:36:46;5.83;;;4.50;;
19940;SDS011;10132;50.864;5.176;2023-05-10T07:38:50;3.20;;;2.90;;
19940;SDS011;10132;50.864;5.176;2023-05-10T07:40:52;2.87;;;2.63;;
19940;SDS011;10132;50.864;5.176;2023-05-10T07:42:54;2.80;;;2.20;;
19940;SDS011;10132;50.864;5.176;2023-05-10T07:44:57;2.10;;;1.90;;
19940;SDS011;10132;50.864;5.176;2023-05-10T07:47:00;4.40;;;1.70;;
19940;SDS011;10132;50.864;5.176;2023-05-10T07:49:04;1.57;;;1.27;;
19940;SDS011;10132;50.864;5.176;2023-05-10T07:51:06;1.93;;;1.20;;
19940;SDS011;10132;50.864;5.176;2023-05-10T07:53:09;1.93;;;1.50;;
19940;SDS011;10132;50.864;5.176;2023-05-10T07:55:20;1.63;;;1.40;;
19940;SDS011;10132;50.864;5.176;2023-05-10T07:57:23;2.03;;;1.60;;
19940;SDS011;10132;50.864;5.176;2023-05-10T07:59:26;1.90;;;1.70;;
19940;SDS011;10132;50.864;5.176;2023-05-10T08:01:30;2.10;;;1.90;;
19940;SDS011;10132;50.864;5.176;2023-05-10T08:03:33;3.10;;;2.10;;
19940;SDS011;10132;50.864;5.176;2023-05-10T08:05:36;1.83;;;1.73;;
19940;SDS011;10132;50.864;5.176;2023-05-10T08:07:38;5.00;;;2.07;;
19940;SDS011;10132;50.864;5.176;2023-05-10T08:09:41;2.47;;;2.00;;
19940;SDS011;10132;50.864;5.176;2023-05-10T08:11:45;2.60;;;1.90;;
19940;SDS011;10132;50.864;5.176;2023-05-10T08:13:48;4.07;;;1.90;;
19940;SDS011;10132;50.864;5.176;2023-05-10T08:15:51;4.00;;;2.10;;
19940;SDS011;10132;50.864;5.176;2023-05-10T08:17:55;3.83;;;2.47;;
19940;SDS011;10132;50.864;5.176;2023-05-10T08:19:57;4.43;;;2.40;;
19940;SDS011;10132;50.864;5.176;2023-05-10T08:22:01;2.83;;;2.37;;
19940;SDS011;10132;50.864;5.176;2023-05-10T08:24:04;2.87;;;2.17;;
19940;SDS011;10132;50.864;5.176;2023-05-10T08:26:09;3.03;;;2.40;;
19940;SDS011;10132;50.864;5.176;2023-05-10T08:28:12;3.30;;;2.40;;
19940;SDS011;10132;50.864;5.176;2023-05-10T08:30:14;3.03;;;2.40;;
19940;SDS011;10132;50.864;5.176;2023-05-10T08:32:16;3.90;;;2.80;;
19940;SDS011;10132;50.864;5.176;2023-05-10T08:34:20;3.00;;;2.70;;
19940;SDS011;10132;50.864;5.176;2023-05-10T08:36:23;4.37;;;3.20;;
19940;SDS011;10132;50.864;5.176;2023-05-10T08:38:27;3.50;;;2.90;;
19940;SDS011;10132;50.864;5.176;2023-05-10T08:40:29;3.50;;;3.20;;
19940;SDS011;10132;50.864;5.176;2023-05-10T08:42:33;5.17;;;3.70;;
19940;SDS011;10132;50.864;5.176;2023-05-10T08:44:37;4.37;;;3.50;;
19940;SDS011;10132;50.864;5.176;2023-05-10T08:46:41;5.30;;;3.67;;
19940;SDS011;10132;50.864;5.176;2023-05-10T08:48:44;5.10;;;3.30;;
19940;SDS011;10132;50.864;5.176;2023-05-10T08:50:47;5.10;;;3.67;;
19940;SDS011;10132;50.864;5.176;2023-05-10T08:52:52;4.67;;;3.50;;
19940;SDS011;10132;50.864;5.176;2023-05-10T08:54:59;4.90;;;3.83;;
19940;SDS011;10132;50.864;5.176;2023-05-10T08:57:01;4.73;;;4.07;;
19940;SDS011;10132;50.864;5.176;2023-05-10T08:59:03;4.70;;;3.90;;
19940;SDS011;10132;50.864;5.176;2023-05-10T09:01:07;4.47;;;4.07;;
19940;SDS011;10132;50.864;5.176;2023-05-10T09:03:10;4.80;;;4.13;;
19940;SDS011;10132;50.864;5.176;2023-05-10T09:05:12;7.67;;;3.90;;
19940;SDS011;10132;50.864;5.176;2023-05-10T09:07:16;4.93;;;4.23;;
19940;SDS011;10132;50.864;5.176;2023-05-10T09:09:20;5.83;;;4.47;;
19940;SDS011;10132;50.864;5.176;2023-05-10T09:11:26;5.17;;;4.67;;
19940;SDS011;10132;50.864;5.176;2023-05-10T09:13:30;5.33;;;4.50;;
19940;SDS011;10132;50.864;5.176;2023-05-10T09:15:33;5.57;;;4.67;;
19940;SDS011;10132;50.864;5.176;2023-05-10T09:17:36;5.47;;;4.70;;
19940;SDS011;10132;50.864;5.176;2023-05-10T09:19:39;6.77;;;5.80;;
19940;SDS011;10132;50.864;5.176;2023-05-10T09:21:41;7.97;;;5.93;;
19940;SDS011;10132;50.864;5.176;2023-05-10T09:23:44;7.10;;;5.73;;
19940;SDS011;10132;50.864;5.176;2023-05-10T09:25:46;7.80;;;6.17;;
19940;SDS011;10132;50.864;5.176;2023-05-10T09:27:51;7.43;;;6.17;;
19940;SDS011;10132;50.864;5.176;2023-05-10T09:29:55;8.20;;;6.00;;
19940;SDS011;10132;50.864;5.176;2023-05-10T09:32:00;7.17;;;6.43;;
19940;SDS011;10132;50.864;5.176;2023-05-10T09:34:02;8.57;;;6.90;;
19940;SDS011;10132;50.864;5.176;2023-05-10T09:36:06;8.63;;;6.60;;
19940;SDS011;10132;50.864;5.176;2023-05-10T09:38:09;11.20;;;7.83;;
19940;SDS011;10132;50.864;5.176;2023-05-10T09:40:12;8.23;;;6.67;;
19940;SDS011;10132;50.864;5.176;2023-05-10T09:42:29;10.23;;;7.13;;
19940;SDS011;10132;50.864;5.176;2023-05-10T09:44:33;8.90;;;7.20;;
19940;SDS011;10132;50.864;5.176;2023-05-10T09:46:43;10.50;;;8.10;;
19940;SDS011;10132;50.864;5.176;2023-05-10T09:49:05;11.57;;;8.43;;
19940;SDS011;10132;50.864;5.176;2023-05-10T09:51:24;9.67;;;8.27;;
19940;SDS011;10132;50.864;5.176;2023-05-10T09:53:41;11.10;;;9.27;;
19940;SDS011;10132;50.864;5.176;2023-05-10T09:58:23;11.70;;;8.93;;
19940;SDS011;10132;50.864;5.176;2023-05-10T10:05:52;9.27;;;8.03;;
19940;SDS011;10132;50.864;5.176;2023-05-10T10:07:56;9.77;;;8.60;;
19940;SDS011;10132;50.864;5.176;2023-05-10T10:10:02;9.97;;;8.23;;
19940;SDS011;10132;50.864;5.176;2023-05-10T10:12:24;9.57;;;7.03;;
19940;SDS011;10132;50.864;5.176;2023-05-10T10:14:40;9.67;;;7.40;;
19940;SDS011;10132;50.864;5.176;2023-05-10T10:16:57;10.40;;;7.60;;
19940;SDS011;10132;50.864;5.176;2023-05-10T10:19:07;8.27;;;7.43;;
19940;SDS011;10132;50.864;5.176;2023-05-10T10:21:23;8.40;;;7.00;;
19940;SDS011;10132;50.864;5.176;2023-05-10T10:23:28;8.33;;;7.03;;
19940;SDS011;10132;50.864;5.176;2023-05-10T10:25:35;7.93;;;6.67;;
19940;SDS011;10132;50.864;5.176;2023-05-10T10:27:43;9.33;;;7.17;;
19940;SDS011;10132;50.864;5.176;2023-05-10T10:29:52;7.37;;;6.57;;
19940;SDS011;10132;50.864;5.176;2023-05-10T10:32:10;8.60;;;6.23;;
19940;SDS011;10132;50.864;5.176;2023-05-10T10:34:27;6.73;;;6.07;;
19940;SDS011;10132;50.864;5.176;2023-05-10T10:36:32;7.47;;;6.10;;
19940;SDS011;10132;50.864;5.176;2023-05-10T10:38:38;6.70;;;4.97;;
19940;SDS011;10132;50.864;5.176;2023-05-10T10:41:03;6.77;;;5.13;;
19940;SDS011;10132;50.864;5.176;2023-05-10T10:43:21;7.10;;;5.23;;
19940;SDS011;10132;50.864;5.176;2023-05-10T10:45:31;6.23;;;5.10;;
19940;SDS011;10132;50.864;5.176;2023-05-10T10:47:36;5.83;;;5.23;;
19940;SDS011;10132;50.864;5.176;2023-05-10T10:49:43;6.23;;;4.90;;
19940;SDS011;10132;50.864;5.176;2023-05-10T10:54:30;5.00;;;4.50;;
19940;SDS011;10132;50.864;5.176;2023-05-10T10:59:33;4.60;;;4.17;;
19940;SDS011;10132;50.864;5.176;2023-05-10T11:02:00;7.10;;;4.40;;
19940;SDS011;10132;50.864;5.176;2023-05-10T11:04:22;5.10;;;4.53;;
19940;SDS011;10132;50.864;5.176;2023-05-10T11:12:52;6.73;;;5.00;;
19940;SDS011;10132;50.864;5.176;2023-05-10T11:15:28;5.10;;;4.30;;
19940;SDS011;10132;50.864;5.176;2023-05-10T11:17:34;5.77;;;5.03;;
19940;SDS011;10132;50.864;5.176;2023-05-10T11:20:02;6.27;;;4.77;;
19940;SDS011;10132;50.864;5.176;2023-05-10T11:22:15;5.43;;;4.17;;
19940;SDS011;10132;50.864;5.176;2023-05-10T11:24:21;5.40;;;4.30;;
19940;SDS011;10132;50.864;5.176;2023-05-10T11:26:30;5.40;;;4.40;;
19940;SDS011;10132;50.864;5.176;2023-05-10T11:28:40;5.23;;;4.10;;
19940;SDS011;10132;50.864;5.176;2023-05-10T11:30:43;4.63;;;4.10;;
19940;SDS011;10132;50.864;5.176;2023-05-10T11:32:47;4.77;;;4.17;;
19940;SDS011;10132;50.864;5.176;2023-05-10T11:34:50;3.87;;;3.47;;
19940;SDS011;10132;50.864;5.176;2023-05-10T11:36:55;4.17;;;3.80;;
19940;SDS011;10132;50.864;5.176;2023-05-10T11:38:59;4.43;;;3.83;;
19940;SDS011;10132;50.864;5.176;2023-05-10T11:41:11;4.97;;;3.97;;
19940;SDS011;10132;50.864;5.176;2023-05-10T11:43:18;4.10;;;3.70;;
19940;SDS011;10132;50.864;5.176;2023-05-10T11:45:23;3.40;;;3.03;;
19940;SDS011;10132;50.864;5.176;2023-05-10T11:47:26;3.70;;;3.33;;
19940;SDS011;10132;50.864;5.176;2023-05-10T11:49:31;4.13;;;3.63;;
19940;SDS011;10132;50.864;5.176;2023-05-10T11:51:34;4.00;;;3.60;;
19940;SDS011;10132;50.864;5.176;2023-05-10T11:53:37;3.90;;;3.47;;
19940;SDS011;10132;50.864;5.176;2023-05-10T11:55:39;3.50;;;3.20;;
19940;SDS011;10132;50.864;5.176;2023-05-10T11:57:42;3.50;;;3.20;;
19940;SDS011;10132;50.864;5.176;2023-05-10T11:59:49;3.43;;;3.03;;
19940;SDS011;10132;50.864;5.176;2023-05-10T12:01:55;3.37;;;3.07;;
19940;SDS011;10132;50.864;5.176;2023-05-10T12:03:58;2.93;;;2.40;;
19940;SDS011;10132;50.864;5.176;2023-05-10T12:06:01;2.57;;;2.33;;
19940;SDS011;10132;50.864;5.176;2023-05-10T12:08:10;2.53;;;2.20;;
19940;SDS011;10132;50.864;5.176;2023-05-10T12:10:13;2.63;;;2.43;;
19940;SDS011;10132;50.864;5.176;2023-05-10T12:12:17;2.20;;;2.00;;
19940;SDS011;10132;50.864;5.176;2023-05-10T12:14:19;3.30;;;2.10;;
19940;SDS011;10132;50.864;5.176;2023-05-10T12:16:26;2.30;;;2.10;;
19940;SDS011;10132;50.864;5.176;2023-05-10T12:18:30;2.10;;;1.90;;
19940;SDS011;10132;50.864;5.176;2023-05-10T12:20:34;2.47;;;2.27;;
19940;SDS011;10132;50.864;5.176;2023-05-10T12:22:36;2.73;;;2.50;;
19940;SDS011;10132;50.864;5.176;2023-05-10T12:24:39;2.60;;;1.60;;
19940;SDS011;10132;50.864;5.176;2023-05-10T12:26:43;2.33;;;2.13;;
19940;SDS011;10132;50.864;5.176;2023-05-10T12:28:48;2.57;;;2.37;;
19940;SDS011;10132;50.864;5.176;2023-05-10T12:30:52;2.50;;;2.30;;
19940;SDS011;10132;50.864;5.176;2023-05-10T12:33:00;2.63;;;2.43;;
19940;SDS011;10132;50.864;5.176;2023-05-10T12:35:04;2.40;;;2.20;;
19940;SDS011;10132;50.864;5.176;2023-05-10T12:37:06;2.77;;;2.57;;
19940;SDS011;10132;50.864;5.176;2023-05-10T12:39:11;2.70;;;2.50;;
19940;SDS011;10132;50.864;5.176;2023-05-10T12:41:14;3.47;;;2.60;;
19940;SDS011;10132;50.864;5.176;2023-05-10T12:43:19;3.57;;;2.63;;
19940;SDS011;10132;50.864;5.176;2023-05-10T12:45:21;3.00;;;2.60;;